Time;durP1;ratioP1;P1;durP2;ratioP2;P2;SDS_P1;SDS_P2;PMS_P1;PMS_P2;Temp;Humidity;BMP_temperature;BMP_pressure;BME280_temperature;BME280_humidity;BME280_pressure;Samples;Min_cycle;Max_cycle;Signal;HPM_P1;HPM_P2
2021/10/18 00:02:10;;;;;;;33.57;27.23;;;6.80;99.90;;;;;;5003164;28;20201;-77
2021/10/18 00:04:37;;;;;;;32.43;26.77;;;6.80;99.90;;;;;;4983944;28;20234;-78
2021/10/18 00:07:04;;;;;;;33.63;28.43;;;6.80;99.90;;;;;;4981399;28;20490;-77
2021/10/18 00:09:32;;;;;;;30.47;26.77;;;6.80;99.90;;;;;;4986007;28;20660;-77
2021/10/18 00:11:59;;;;;;;28.43;24.17;;;6.80;99.90;;;;;;4983472;28;20202;-78
2021/10/18 00:14:25;;;;;;;29.47;25.83;;;6.90;99.90;;;;;;5006447;28;20228;-78
2021/10/18 00:16:52;;;;;;;30.43;25.10;;;7.00;99.90;;;;;;4999537;28;20277;-77
2021/10/18 00:19:22;;;;;;;30.73;24.90;;;7.00;99.90;;;;;;5006273;28;20201;-78
2021/10/18 00:21:49;;;;;;;29.27;26.07;;;7.10;99.90;;;;;;4981230;28;20222;-78
2021/10/18 00:24:16;;;;;;;31.70;27.03;;;7.10;99.90;;;;;;4988973;28;20214;-77
2021/10/18 00:26:44;;;;;;;31.47;27.07;;;7.20;99.90;;;;;;5003778;28;20736;-78
2021/10/18 00:29:11;;;;;;;29.87;26.63;;;7.20;99.90;;;;;;4984724;28;20619;-78
2021/10/18 00:31:38;;;;;;;32.50;27.67;;;7.30;99.90;;;;;;5004426;28;20190;-77
2021/10/18 00:34:05;;;;;;;29.83;26.67;;;7.40;99.90;;;;;;5000477;28;20220;-77
2021/10/18 00:36:31;;;;;;;31.60;28.13;;;7.40;99.90;;;;;;4987762;28;20260;-78
2021/10/18 00:38:58;;;;;;;31.43;27.67;;;7.50;99.90;;;;;;4985080;28;20207;-78
2021/10/18 00:41:25;;;;;;;39.00;28.80;;;7.50;99.90;;;;;;4986867;28;20990;-76
2021/10/18 00:43:55;;;;;;;35.60;20.67;;;7.60;99.90;;;;;;4991483;28;20218;-77
2021/10/18 00:46:24;;;;;;;35.13;20.50;;;7.60;99.90;;;;;;4986268;28;20215;-77
2021/10/18 00:48:51;;;;;;;38.40;19.67;;;7.60;99.90;;;;;;5010150;28;20286;-76
2021/10/18 00:51:21;;;;;;;32.67;19.27;;;7.70;99.90;;;;;;4985290;28;20204;-78
2021/10/18 00:53:49;;;;;;;34.47;20.73;;;7.70;99.90;;;;;;5006666;28;20676;-77
2021/10/18 00:56:16;;;;;;;38.77;22.00;;;7.70;99.90;;;;;;5002929;28;20338;-77
2021/10/18 00:58:44;;;;;;;42.97;22.83;;;7.70;99.90;;;;;;5010249;28;20198;-78
2021/10/18 01:01:13;;;;;;;36.83;20.40;;;7.70;99.90;;;;;;5002418;28;20216;-77
2021/10/18 01:03:40;;;;;;;39.17;22.73;;;7.70;99.90;;;;;;4992923;28;20223;-77
2021/10/18 01:06:07;;;;;;;43.20;22.43;;;7.70;99.90;;;;;;5002388;28;20630;-78
2021/10/18 01:08:34;;;;;;;40.83;22.90;;;7.60;99.90;;;;;;4985677;28;20204;-77
2021/10/18 01:11:02;;;;;;;39.70;22.33;;;7.70;99.90;;;;;;4987039;28;20271;-77
2021/10/18 01:13:29;;;;;;;36.93;20.93;;;7.70;99.90;;;;;;4988675;28;20735;-78
2021/10/18 01:15:56;;;;;;;45.87;23.20;;;7.70;99.90;;;;;;5003093;28;20204;-78
2021/10/18 01:18:24;;;;;;;40.00;21.23;;;7.80;99.90;;;;;;4987862;28;20195;-78
2021/10/18 01:20:52;;;;;;;33.53;19.37;;;7.80;99.90;;;;;;4984617;28;20266;-78
2021/10/18 01:23:19;;;;;;;39.70;21.20;;;7.80;99.90;;;;;;4986773;28;20233;-78
2021/10/18 01:25:46;;;;;;;37.60;21.37;;;7.80;99.90;;;;;;4991122;28;20208;-78
2021/10/18 01:28:14;;;;;;;33.37;19.17;;;7.80;99.90;;;;;;5007728;28;20253;-77
2021/10/18 01:30:41;;;;;;;36.63;19.60;;;7.80;99.90;;;;;;4987372;28;20256;-77
2021/10/18 01:33:09;;;;;;;35.07;20.97;;;7.80;99.90;;;;;;5005276;28;20203;-77
2021/10/18 01:35:36;;;;;;;38.13;22.57;;;7.80;99.90;;;;;;4985992;28;20190;-77
2021/10/18 01:38:05;;;;;;;34.77;20.37;;;7.70;99.90;;;;;;5004036;28;20266;-77
2021/10/18 01:40:32;;;;;;;32.40;18.73;;;7.80;99.90;;;;;;4985707;28;20305;-78
2021/10/18 01:42:59;;;;;;;32.47;21.03;;;7.80;99.90;;;;;;4995154;28;20203;-78
2021/10/18 01:45:26;;;;;;;32.67;22.47;;;7.90;99.90;;;;;;5004821;28;20228;-78
2021/10/18 01:47:53;;;;;;;26.43;20.13;;;7.80;99.90;;;;;;4983839;28;20270;-77
2021/10/18 01:50:21;;;;;;;35.93;22.13;;;7.90;99.90;;;;;;5005205;28;20216;-76
2021/10/18 01:52:50;;;;;;;42.13;24.47;;;7.90;99.90;;;;;;4984589;28;20254;-77
2021/10/18 01:55:19;;;;;;;39.80;21.10;;;7.90;99.90;;;;;;4987386;28;20220;-78
2021/10/18 01:57:48;;;;;;;36.00;21.50;;;7.90;99.90;;;;;;5002160;28;20211;-77
2021/10/18 02:00:16;;;;;;;40.77;23.00;;;7.90;99.90;;;;;;4986295;28;20208;-76
2021/10/18 02:02:43;;;;;;;36.53;22.00;;;7.90;99.90;;;;;;5007455;28;20203;-78
2021/10/18 02:05:11;;;;;;;35.80;20.93;;;7.90;99.90;;;;;;5006363;28;20286;-78
2021/10/18 02:07:37;;;;;;;32.87;21.03;;;7.90;99.90;;;;;;4986358;28;20265;-78
2021/10/18 02:10:05;;;;;;;40.47;21.80;;;7.80;99.90;;;;;;5007102;28;20204;-78
2021/10/18 02:12:33;;;;;;;36.07;21.50;;;7.90;99.90;;;;;;5002154;28;20258;-78
2021/10/18 02:15:00;;;;;;;35.63;20.97;;;7.90;99.90;;;;;;5006043;28;20254;-77
2021/10/18 02:17:27;;;;;;;39.27;22.73;;;7.80;99.90;;;;;;5007779;28;20212;-78
2021/10/18 02:19:54;;;;;;;36.47;20.97;;;7.90;99.90;;;;;;4986761;28;20260;-78
2021/10/18 02:22:21;;;;;;;38.13;23.27;;;7.90;99.90;;;;;;5004471;28;20268;-78
2021/10/18 02:24:47;;;;;;;34.43;21.90;;;7.90;99.90;;;;;;4986533;28;20278;-77
2021/10/18 02:27:14;;;;;;;35.73;20.90;;;7.90;99.90;;;;;;5004409;28;20979;-78
2021/10/18 02:29:44;;;;;;;37.70;21.33;;;7.90;99.90;;;;;;4982773;28;20204;-78
2021/10/18 02:32:10;;;;;;;34.93;19.93;;;7.90;99.90;;;;;;4985897;28;20234;-78
2021/10/18 02:34:37;;;;;;;33.27;19.13;;;7.90;99.90;;;;;;5003294;28;20703;-76
2021/10/18 02:37:04;;;;;;;33.20;19.70;;;7.90;99.90;;;;;;5001280;28;20204;-77
2021/10/18 02:39:31;;;;;;;37.13;22.00;;;7.90;99.90;;;;;;4990677;28;20211;-76
2021/10/18 02:41:58;;;;;;;33.77;18.60;;;7.90;99.90;;;;;;5004442;28;20287;-76
2021/10/18 02:44:24;;;;;;;32.60;19.40;;;7.90;99.90;;;;;;5005597;28;20215;-77
2021/10/18 02:46:53;;;;;;;33.33;19.30;;;8.00;99.90;;;;;;4975260;28;20204;-75
2021/10/18 02:49:21;;;;;;;35.07;20.13;;;7.90;99.90;;;;;;4993526;28;20203;-77
2021/10/18 02:51:48;;;;;;;32.50;19.07;;;7.90;99.90;;;;;;5010513;28;20665;-76
2021/10/18 02:54:15;;;;;;;30.03;19.00;;;7.90;99.90;;;;;;5004376;28;20240;-75
2021/10/18 02:56:43;;;;;;;32.47;19.80;;;8.00;99.90;;;;;;4993669;28;20646;-76
2021/10/18 02:59:10;;;;;;;33.73;20.73;;;8.00;99.90;;;;;;5011224;28;20437;-76
2021/10/18 03:01:38;;;;;;;33.17;20.83;;;8.00;99.90;;;;;;5011204;28;20207;-76
2021/10/18 03:04:06;;;;;;;38.40;22.57;;;8.00;99.90;;;;;;5011287;28;20224;-75
2021/10/18 03:06:33;;;;;;;33.47;20.00;;;8.10;99.90;;;;;;5011047;28;20199;-76
2021/10/18 03:09:00;;;;;;;32.80;20.07;;;8.00;99.90;;;;;;4993429;28;20600;-76
2021/10/18 03:11:26;;;;;;;26.93;17.60;;;8.00;99.90;;;;;;5011290;28;20286;-76
2021/10/18 03:13:53;;;;;;;33.33;20.27;;;8.10;99.90;;;;;;4993099;28;20235;-76
2021/10/18 03:16:21;;;;;;;36.50;21.27;;;8.10;99.90;;;;;;4989866;28;20199;-78
2021/10/18 03:18:48;;;;;;;35.77;20.43;;;8.00;99.90;;;;;;5008175;28;20223;-76
2021/10/18 03:21:16;;;;;;;29.57;19.47;;;8.00;99.90;;;;;;5004356;28;20658;-76
2021/10/18 03:23:43;;;;;;;28.40;19.07;;;8.00;99.90;;;;;;4992671;28;20289;-76
2021/10/18 03:26:10;;;;;;;36.30;22.40;;;8.00;99.90;;;;;;5003810;28;20203;-76
2021/10/18 03:28:37;;;;;;;32.87;21.30;;;8.00;99.90;;;;;;4991210;28;20192;-77
2021/10/18 03:31:04;;;;;;;30.30;21.53;;;8.00;99.90;;;;;;5011809;28;20199;-77
2021/10/18 03:33:35;;;;;;;28.37;20.10;;;8.10;99.90;;;;;;4996061;28;20217;-76
2021/10/18 03:36:02;;;;;;;34.27;23.57;;;8.00;99.90;;;;;;5002036;28;20222;-76
2021/10/18 03:38:31;;;;;;;33.73;20.70;;;8.00;99.90;;;;;;4999792;28;20200;-76
2021/10/18 03:40:58;;;;;;;29.73;22.77;;;8.00;99.90;;;;;;4981743;28;20255;-76
2021/10/18 03:43:26;;;;;;;33.77;23.73;;;8.00;99.90;;;;;;4984662;28;20200;-76
2021/10/18 03:45:53;;;;;;;31.67;22.17;;;8.00;99.90;;;;;;4989565;28;20232;-76
2021/10/18 03:48:20;;;;;;;31.00;19.53;;;8.00;99.90;;;;;;5004974;28;20251;-76
2021/10/18 03:50:49;;;;;;;28.97;18.10;;;8.00;99.90;;;;;;5010208;28;20736;-77
2021/10/18 03:53:15;;;;;;;26.90;18.47;;;8.10;99.90;;;;;;4991540;28;20554;-75
2021/10/18 03:55:44;;;;;;;29.53;20.67;;;8.10;99.90;;;;;;5006424;28;20204;-76
2021/10/18 03:58:10;;;;;;;27.90;23.03;;;8.10;99.90;;;;;;5006821;28;20242;-76
2021/10/18 04:00:37;;;;;;;29.07;24.10;;;8.20;99.90;;;;;;4988981;28;20677;-77
2021/10/18 04:03:04;;;;;;;25.87;19.93;;;8.10;99.90;;;;;;5006712;28;20261;-76
2021/10/18 04:05:31;;;;;;;26.23;21.23;;;8.10;99.90;;;;;;5003199;28;20775;-76
2021/10/18 04:07:58;;;;;;;27.63;21.07;;;8.10;99.90;;;;;;5006794;28;20199;-76
2021/10/18 04:10:25;;;;;;;25.37;22.13;;;8.10;99.90;;;;;;5008390;28;20261;-76
2021/10/18 04:12:53;;;;;;;31.87;23.77;;;8.00;99.90;;;;;;5004961;28;20604;-77
2021/10/18 04:15:20;;;;;;;24.73;18.80;;;8.00;99.90;;;;;;5007480;28;20275;-77
2021/10/18 04:17:47;;;;;;;25.73;17.67;;;8.00;99.90;;;;;;5003507;28;20225;-77
2021/10/18 04:20:15;;;;;;;26.90;18.60;;;8.00;99.90;;;;;;4996299;28;20676;-76
2021/10/18 04:22:46;;;;;;;29.47;18.67;;;8.00;99.90;;;;;;5007566;28;20211;-76
2021/10/18 04:25:13;;;;;;;28.40;18.17;;;8.00;99.90;;;;;;5005977;28;20615;-77
2021/10/18 04:27:40;;;;;;;28.13;18.10;;;8.00;99.90;;;;;;5004401;28;20247;-77
2021/10/18 04:30:09;;;;;;;26.87;18.37;;;7.90;99.90;;;;;;5006012;28;20204;-77
2021/10/18 04:32:36;;;;;;;25.43;16.50;;;7.90;99.90;;;;;;5004268;28;20616;-77
2021/10/18 04:35:03;;;;;;;26.60;17.27;;;7.90;99.90;;;;;;4990950;28;20221;-77
2021/10/18 04:37:30;;;;;;;28.50;17.73;;;7.90;99.90;;;;;;5003553;28;20204;-76
2021/10/18 04:39:57;;;;;;;28.70;18.93;;;7.90;99.90;;;;;;5005746;28;20197;-77
2021/10/18 04:42:23;;;;;;;29.47;19.20;;;7.90;99.90;;;;;;4989159;28;20216;-76
2021/10/18 04:44:50;;;;;;;26.27;16.87;;;8.00;99.90;;;;;;5009478;28;20219;-76
2021/10/18 04:47:18;;;;;;;24.93;17.20;;;7.90;99.90;;;;;;5006072;28;20204;-76
2021/10/18 04:49:46;;;;;;;28.27;18.03;;;8.00;99.90;;;;;;5005530;28;20618;-77
2021/10/18 04:52:13;;;;;;;28.90;18.37;;;8.00;99.90;;;;;;5006014;28;20279;-76
2021/10/18 04:54:39;;;;;;;32.47;19.57;;;8.00;99.90;;;;;;5003995;28;20299;-76
2021/10/18 04:57:06;;;;;;;27.73;18.97;;;8.10;99.90;;;;;;5003380;28;20212;-76
2021/10/18 04:59:33;;;;;;;28.00;19.27;;;8.10;99.90;;;;;;4985271;28;20233;-76
2021/10/18 05:02:00;;;;;;;25.20;16.90;;;8.10;99.90;;;;;;5005758;28;20217;-78
2021/10/18 05:04:28;;;;;;;31.60;21.73;;;8.10;99.90;;;;;;4997454;28;20216;-77
2021/10/18 05:06:55;;;;;;;23.80;16.77;;;8.10;99.90;;;;;;4977093;28;20685;-76
2021/10/18 05:09:21;;;;;;;29.73;19.70;;;8.10;99.90;;;;;;4976346;28;20202;-76
2021/10/18 05:11:48;;;;;;;25.97;17.70;;;8.10;99.90;;;;;;4994447;28;20255;-76
2021/10/18 05:14:15;;;;;;;28.17;18.50;;;8.00;99.90;;;;;;4996159;28;20228;-77
2021/10/18 05:16:42;;;;;;;26.47;18.70;;;8.00;99.90;;;;;;5002165;28;20247;-76
2021/10/18 05:19:09;;;;;;;27.97;18.50;;;8.10;99.90;;;;;;4985002;28;20204;-77
2021/10/18 05:21:37;;;;;;;29.90;23.90;;;8.10;99.90;;;;;;4983967;28;20274;-77
2021/10/18 05:24:04;;;;;;;30.60;23.93;;;8.10;99.90;;;;;;5001605;28;20365;-76
2021/10/18 05:26:31;;;;;;;28.60;19.73;;;8.10;99.90;;;;;;5001736;28;20255;-76
2021/10/18 05:28:57;;;;;;;29.93;20.87;;;8.10;99.90;;;;;;4984092;28;20204;-77
2021/10/18 05:31:24;;;;;;;32.27;26.73;;;8.10;99.90;;;;;;4983984;28;20204;-76
2021/10/18 05:33:51;;;;;;;32.20;27.57;;;8.10;99.90;;;;;;5009573;28;20779;-76
2021/10/18 05:36:18;;;;;;;28.47;23.77;;;8.00;99.90;;;;;;4988394;28;20211;-76
2021/10/18 05:38:46;;;;;;;28.23;24.73;;;8.00;99.90;;;;;;5003809;28;20211;-76
2021/10/18 05:41:13;;;;;;;33.00;26.97;;;8.10;99.90;;;;;;4987234;28;20206;-77
2021/10/18 05:43:39;;;;;;;36.07;31.00;;;8.10;99.90;;;;;;5010989;28;20228;-76
2021/10/18 05:46:06;;;;;;;32.97;26.73;;;8.00;99.90;;;;;;4995080;28;20208;-76
2021/10/18 05:48:33;;;;;;;29.23;21.43;;;8.10;99.90;;;;;;4994944;28;20261;-76
2021/10/18 05:51:00;;;;;;;29.87;26.27;;;8.10;99.90;;;;;;4987266;28;20202;-76
2021/10/18 05:53:27;;;;;;;46.83;32.13;;;8.00;99.90;;;;;;5004138;28;20206;-76
2021/10/18 05:55:55;;;;;;;38.20;29.63;;;8.00;99.90;;;;;;5012058;28;20203;-76
2021/10/18 05:58:21;;;;;;;39.47;29.93;;;8.00;99.90;;;;;;5008510;28;20206;-77
2021/10/18 06:00:48;;;;;;;44.40;30.53;;;8.00;99.90;;;;;;5011459;28;20687;-76
2021/10/18 06:03:15;;;;;;;43.83;30.83;;;8.00;99.90;;;;;;4989972;28;20220;-76
2021/10/18 06:05:44;;;;;;;45.90;31.53;;;8.00;99.90;;;;;;5007882;28;20199;-76
2021/10/18 06:08:13;;;;;;;41.20;29.73;;;8.00;99.90;;;;;;4986313;28;20528;-76
2021/10/18 06:10:40;;;;;;;39.47;28.50;;;8.00;99.90;;;;;;4984810;28;20197;-76
2021/10/18 06:13:09;;;;;;;39.53;29.77;;;8.00;99.90;;;;;;4983363;28;20204;-76
2021/10/18 06:15:37;;;;;;;35.60;27.73;;;8.00;99.90;;;;;;5008855;28;20207;-77
2021/10/18 06:18:08;;;;;;;43.27;30.20;;;8.00;99.90;;;;;;5008195;28;20258;-76
2021/10/18 06:20:36;;;;;;;42.20;30.27;;;8.00;99.90;;;;;;5012054;28;20209;-76
2021/10/18 06:23:03;;;;;;;39.67;27.90;;;8.10;99.90;;;;;;5010426;28;20219;-77
2021/10/18 06:25:31;;;;;;;37.03;28.50;;;8.10;99.90;;;;;;5011363;28;20234;-76
2021/10/18 06:27:59;;;;;;;37.50;28.27;;;8.20;99.90;;;;;;5000031;28;20211;-76
2021/10/18 06:30:27;;;;;;;41.90;29.83;;;8.20;99.90;;;;;;4994051;28;20211;-76
2021/10/18 06:32:55;;;;;;;37.83;27.97;;;8.20;99.90;;;;;;5005578;28;20196;-77
2021/10/18 06:35:22;;;;;;;41.33;29.93;;;8.20;99.90;;;;;;5003789;28;20215;-76
2021/10/18 06:37:50;;;;;;;37.30;28.73;;;8.20;99.90;;;;;;5006260;28;20204;-76
2021/10/18 06:40:18;;;;;;;39.67;28.03;;;8.30;99.90;;;;;;4982079;28;20211;-77
2021/10/18 06:42:45;;;;;;;39.30;28.80;;;8.30;99.90;;;;;;5001000;28;20239;-75
2021/10/18 06:45:12;;;;;;;38.10;27.90;;;8.40;99.90;;;;;;4999767;28;20226;-77
2021/10/18 06:47:40;;;;;;;38.50;30.10;;;8.40;99.90;;;;;;5003377;28;20921;-76
2021/10/18 06:50:09;;;;;;;39.73;28.77;;;8.40;99.90;;;;;;5003357;28;20204;-76
2021/10/18 06:52:39;;;;;;;30.60;26.57;;;8.40;99.90;;;;;;4991103;28;20284;-76
2021/10/18 06:55:08;;;;;;;34.63;27.50;;;8.40;99.90;;;;;;4987945;28;20237;-77
2021/10/18 06:57:35;;;;;;;33.13;20.33;;;8.50;99.90;;;;;;5002020;28;20200;-77
2021/10/18 07:00:03;;;;;;;32.90;19.73;;;8.50;99.90;;;;;;5004552;28;20212;-76
2021/10/18 07:02:29;;;;;;;39.23;22.47;;;8.50;99.90;;;;;;5003147;28;20771;-77
2021/10/18 07:04:58;;;;;;;32.20;20.03;;;8.50;99.90;;;;;;5008977;28;20229;-76
2021/10/18 07:07:26;;;;;;;34.97;20.50;;;8.60;99.90;;;;;;5008407;28;20199;-76
2021/10/18 07:09:59;;;;;;;29.60;18.60;;;8.70;99.90;;;;;;4990703;28;20196;-76
2021/10/18 07:12:27;;;;;;;34.63;19.13;;;8.70;99.90;;;;;;5008944;28;20250;-77
2021/10/18 07:14:54;;;;;;;29.23;17.67;;;8.70;99.90;;;;;;5003126;28;20230;-77
2021/10/18 07:17:22;;;;;;;35.07;26.47;;;8.70;99.90;;;;;;5003434;28;20552;-77
2021/10/18 07:19:50;;;;;;;34.00;25.13;;;8.80;99.90;;;;;;5009193;28;20635;-76
2021/10/18 07:22:20;;;;;;;31.37;22.50;;;8.80;99.90;;;;;;5014812;28;20689;-76
2021/10/18 07:24:47;;;;;;;32.17;24.57;;;8.80;99.90;;;;;;4997075;28;20208;-77
2021/10/18 07:27:14;;;;;;;33.20;23.73;;;8.90;99.90;;;;;;5009383;28;20589;-77
2021/10/18 07:29:42;;;;;;;29.70;22.50;;;8.90;99.90;;;;;;5014889;28;20196;-76
2021/10/18 07:32:09;;;;;;;28.43;21.50;;;9.00;99.90;;;;;;4991776;28;20662;-77
2021/10/18 07:34:37;;;;;;;26.90;21.60;;;9.00;99.90;;;;;;4989444;28;20316;-77
2021/10/18 07:37:04;;;;;;;29.47;22.03;;;9.00;99.90;;;;;;5007067;28;20246;-77
2021/10/18 07:39:33;;;;;;;30.50;23.20;;;9.00;99.90;;;;;;5013764;28;20213;-76
2021/10/18 07:42:02;;;;;;;29.07;23.37;;;9.00;99.90;;;;;;5012300;28;20192;-77
2021/10/18 07:44:29;;;;;;;29.17;23.33;;;9.10;99.90;;;;;;5000424;28;20225;-76
2021/10/18 07:46:59;;;;;;;30.57;23.83;;;9.10;99.90;;;;;;4986153;28;20304;-76
2021/10/18 07:49:27;;;;;;;28.47;21.97;;;9.20;99.90;;;;;;4981783;28;20205;-77
2021/10/18 07:51:55;;;;;;;27.97;22.50;;;9.20;99.90;;;;;;4994007;28;20217;-76
2021/10/18 07:54:23;;;;;;;28.53;22.70;;;9.30;99.90;;;;;;4996935;28;20572;-77
2021/10/18 07:56:52;;;;;;;30.33;24.10;;;9.30;99.90;;;;;;4983188;28;20251;-76
2021/10/18 07:59:19;;;;;;;25.47;20.87;;;9.20;99.90;;;;;;5011175;28;20189;-77
2021/10/18 08:01:46;;;;;;;31.30;24.13;;;9.30;99.90;;;;;;5014510;28;20216;-76
2021/10/18 08:04:13;;;;;;;27.30;24.50;;;9.30;99.90;;;;;;5007548;28;20765;-76
2021/10/18 08:06:40;;;;;;;26.53;21.43;;;9.40;99.90;;;;;;4988975;28;20204;-76
2021/10/18 08:09:09;;;;;;;26.03;22.37;;;9.50;99.90;;;;;;5013234;28;20206;-77
2021/10/18 08:11:36;;;;;;;26.93;21.77;;;9.60;99.90;;;;;;4990562;28;20560;-77
2021/10/18 08:14:05;;;;;;;24.77;22.07;;;9.60;99.90;;;;;;5002997;28;20718;-78
2021/10/18 08:16:32;;;;;;;23.83;21.30;;;9.60;99.90;;;;;;5005725;28;20255;-76
2021/10/18 08:18:59;;;;;;;23.10;20.63;;;9.70;99.90;;;;;;4989880;28;20214;-77
2021/10/18 08:21:27;;;;;;;24.20;21.43;;;9.80;99.90;;;;;;5010643;28;20579;-76
2021/10/18 08:23:54;;;;;;;23.33;20.83;;;9.90;99.90;;;;;;5013085;28;20219;-77
2021/10/18 08:26:21;;;;;;;25.13;22.43;;;9.90;99.90;;;;;;4996427;28;20205;-76
2021/10/18 08:28:48;;;;;;;21.73;19.53;;;10.10;99.90;;;;;;5001784;28;20199;-77
2021/10/18 08:31:17;;;;;;;22.20;19.83;;;10.10;99.90;;;;;;5000175;28;20736;-77
2021/10/18 08:33:44;;;;;;;21.43;19.13;;;10.20;99.90;;;;;;4993195;28;20220;-77
2021/10/18 08:36:11;;;;;;;24.80;22.13;;;10.30;99.90;;;;;;5014058;28;20224;-77
2021/10/18 08:38:48;;;;;;;24.30;21.80;;;10.30;99.90;;;;;;5000028;28;20206;-76
2021/10/18 08:41:18;;;;;;;26.03;23.10;;;10.40;99.90;;;;;;4991032;28;20204;-78
2021/10/18 08:46:31;;;;;;;26.23;22.90;;;10.40;99.90;;;;;;4991395;28;20204;-77
2021/10/18 08:48:58;;;;;;;22.73;20.53;;;10.40;99.90;;;;;;4999322;28;20227;-77
2021/10/18 08:51:26;;;;;;;25.77;23.10;;;10.50;99.90;;;;;;5005665;28;20193;-77
2021/10/18 08:53:54;;;;;;;24.50;22.07;;;10.60;99.90;;;;;;4989287;28;20240;-77
2021/10/18 08:56:21;;;;;;;24.70;22.17;;;10.60;99.90;;;;;;4993183;28;20205;-77
2021/10/18 08:58:48;;;;;;;24.67;22.20;;;10.60;99.90;;;;;;4988519;28;20205;-77
2021/10/18 09:01:16;;;;;;;21.53;19.47;;;10.70;99.90;;;;;;5006112;28;20201;-77
2021/10/18 09:03:44;;;;;;;22.17;19.77;;;10.90;99.90;;;;;;5003302;28;20263;-77
2021/10/18 09:06:13;;;;;;;19.63;14.93;;;11.20;99.90;;;;;;5001080;28;20201;-77
2021/10/18 09:08:42;;;;;;;25.30;22.77;;;11.50;99.90;;;;;;4984162;28;20634;-77
2021/10/18 09:11:11;;;;;;;24.33;21.97;;;11.60;99.90;;;;;;5008160;28;20195;-76
2021/10/18 09:13:44;;;;;;;26.90;24.23;;;11.70;99.90;;;;;;5003697;28;20272;-77
2021/10/18 09:16:12;;;;;;;24.47;22.00;;;11.60;99.90;;;;;;5001891;28;20205;-77
2021/10/18 09:18:40;;;;;;;21.50;19.27;;;11.80;99.90;;;;;;5010301;28;20565;-77
2021/10/18 09:21:08;;;;;;;19.33;15.37;;;11.80;99.90;;;;;;5004506;28;20294;-76
2021/10/18 09:23:38;;;;;;;18.60;15.87;;;11.90;99.90;;;;;;5011809;28;20762;-78
2021/10/18 09:26:07;;;;;;;17.13;14.70;;;12.00;99.90;;;;;;5005332;28;20230;-76
2021/10/18 09:28:35;;;;;;;19.27;15.07;;;12.20;99.90;;;;;;5003499;28;20261;-76
2021/10/18 09:31:02;;;;;;;16.33;14.07;;;12.20;99.90;;;;;;5001717;28;20206;-76
2021/10/18 09:33:33;;;;;;;18.37;14.17;;;12.20;99.90;;;;;;5004015;28;20188;-77
2021/10/18 09:36:02;;;;;;;17.70;14.40;;;12.20;99.90;;;;;;4989005;28;20212;-76
2021/10/18 09:38:31;;;;;;;16.40;13.67;;;12.20;99.90;;;;;;4986114;28;20313;-76
2021/10/18 09:41:00;;;;;;;22.60;20.37;;;12.20;99.90;;;;;;4983875;28;20204;-75
2021/10/18 09:43:32;;;;;;;22.57;20.37;;;12.20;99.90;;;;;;5001380;28;20216;-77
2021/10/18 09:46:06;;;;;;;16.47;14.77;;;12.30;99.90;;;;;;4984146;28;20219;-76
2021/10/18 10:53:49;;;;;;;22.47;20.47;;;12.20;99.90;;;;;;4978636;28;20592;-77
2021/10/18 10:56:29;;;;;;;23.43;21.33;;;12.40;99.90;;;;;;5003585;28;20232;-76
2021/10/18 10:59:18;;;;;;;24.97;22.37;;;12.50;99.90;;;;;;4996725;28;20227;-77
2021/10/18 11:02:01;;;;;;;21.87;19.87;;;12.50;99.90;;;;;;5005507;28;20280;-76
2021/10/18 11:04:48;;;;;;;24.10;21.77;;;12.50;99.90;;;;;;4984290;28;20236;-76
2021/10/18 11:07:18;;;;;;;21.97;19.97;;;12.60;99.90;;;;;;5000349;28;20640;-77
2021/10/18 11:09:46;;;;;;;24.33;22.03;;;12.50;99.90;;;;;;5005224;28;20215;-77
2021/10/18 11:12:28;;;;;;;23.07;20.83;;;12.60;99.90;;;;;;4991925;28;20299;-78
2021/10/18 11:15:04;;;;;;;25.60;22.80;;;12.50;99.90;;;;;;4983022;28;20246;-78
2021/10/18 11:17:34;;;;;;;25.27;22.87;;;12.40;99.90;;;;;;5013333;28;20198;-78
2021/10/18 11:20:03;;;;;;;25.07;22.67;;;12.30;99.90;;;;;;5013266;28;20213;-78
2021/10/18 11:22:33;;;;;;;23.87;21.67;;;12.30;99.90;;;;;;4983052;28;20202;-76
2021/10/18 11:25:01;;;;;;;22.10;20.07;;;12.40;99.90;;;;;;5006220;28;20263;-77
2021/10/18 11:27:31;;;;;;;21.73;19.67;;;12.40;99.90;;;;;;4983065;28;20275;-76
2021/10/18 11:30:00;;;;;;;22.87;20.70;;;12.50;99.90;;;;;;4985714;28;20204;-77
2021/10/18 11:32:27;;;;;;;22.73;20.53;;;12.60;99.90;;;;;;4997552;28;20203;-77
2021/10/18 11:35:23;;;;;;;24.37;21.97;;;12.60;99.90;;;;;;5009995;28;20223;-77
2021/10/18 11:37:55;;;;;;;22.20;20.10;;;12.70;99.90;;;;;;4926891;28;20649;-77
2021/10/18 11:40:27;;;;;;;23.43;21.13;;;12.70;99.90;;;;;;4988614;28;20621;-77
2021/10/18 11:42:56;;;;;;;23.53;21.13;;;12.70;99.90;;;;;;5000612;28;20750;-77
2021/10/18 11:45:24;;;;;;;24.70;22.43;;;12.80;99.90;;;;;;4985210;28;20223;-77
2021/10/18 11:47:52;;;;;;;24.37;21.97;;;12.80;99.90;;;;;;4985639;28;20201;-76
2021/10/18 11:50:25;;;;;;;21.63;19.73;;;12.90;99.90;;;;;;5003030;28;20188;-77
2021/10/18 11:52:57;;;;;;;20.73;18.93;;;12.90;99.90;;;;;;5000006;28;20295;-76
2021/10/18 11:55:28;;;;;;;20.53;18.73;;;12.90;99.90;;;;;;4983490;28;20216;-76
2021/10/18 11:57:57;;;;;;;21.27;19.27;;;13.00;99.90;;;;;;4999709;28;20690;-76
2021/10/18 12:00:32;;;;;;;22.53;20.50;;;13.10;99.90;;;;;;4985375;28;20238;-76
2021/10/18 12:03:02;;;;;;;22.83;20.57;;;13.10;99.90;;;;;;4986871;28;20208;-76
2021/10/18 12:05:38;;;;;;;20.70;18.80;;;13.20;99.90;;;;;;5011939;28;20235;-77
2021/10/18 12:08:06;;;;;;;20.73;18.93;;;13.30;99.90;;;;;;4988255;28;20208;-78
2021/10/18 12:10:35;;;;;;;21.17;19.37;;;13.30;99.90;;;;;;5011356;28;20206;-77
2021/10/18 12:13:11;;;;;;;21.80;19.80;;;13.40;99.90;;;;;;5003255;28;20273;-77
2021/10/18 12:15:50;;;;;;;21.43;19.53;;;13.50;99.90;;;;;;5013000;28;20208;-77
2021/10/18 12:18:19;;;;;;;20.73;18.93;;;13.40;99.90;;;;;;4984736;28;20212;-77
2021/10/18 12:20:49;;;;;;;23.23;21.03;;;13.50;99.90;;;;;;5013620;28;20201;-77
2021/10/18 12:23:22;;;;;;;21.97;20.07;;;13.40;99.90;;;;;;5012757;28;20799;-77
2021/10/18 12:25:58;;;;;;;21.23;19.33;;;13.50;99.90;;;;;;4988864;28;20200;-77
2021/10/18 12:28:39;;;;;;;21.03;19.17;;;13.60;99.90;;;;;;4988439;28;20231;-77
2021/10/18 12:31:08;;;;;;;22.37;20.27;;;13.60;99.90;;;;;;5003131;28;20925;-77
2021/10/18 12:33:37;;;;;;;20.87;19.07;;;13.60;99.90;;;;;;5006542;28;20275;-77
2021/10/18 12:36:05;;;;;;;20.47;18.67;;;13.60;99.90;;;;;;5012156;28;20673;-76
2021/10/18 12:38:35;;;;;;;19.63;17.83;;;13.70;99.90;;;;;;5013716;28;20729;-77
2021/10/18 12:41:15;;;;;;;20.37;18.60;;;13.70;99.90;;;;;;4993613;28;20204;-76
2021/10/18 12:43:43;;;;;;;20.07;18.37;;;13.80;99.90;;;;;;4988380;28;20231;-77
2021/10/18 12:46:18;;;;;;;20.50;18.70;;;13.80;99.90;;;;;;4987945;28;20335;-77
2021/10/18 12:48:59;;;;;;;18.60;16.83;;;13.80;99.90;;;;;;5013391;28;20201;-79
2021/10/18 12:51:39;;;;;;;16.77;15.37;;;13.90;99.90;;;;;;4996404;28;20211;-78
2021/10/18 12:54:27;;;;;;;17.87;16.47;;;14.00;99.90;;;;;;5005548;28;20591;-78
2021/10/18 12:57:01;;;;;;;17.13;15.73;;;14.00;99.90;;;;;;5003282;28;20193;-79
2021/10/18 12:59:34;;;;;;;18.47;16.87;;;14.00;99.90;;;;;;4985554;28;20211;-80
2021/10/18 13:10:23;;;;;;;18.03;16.50;;;14.30;99.90;;;;;;5005308;28;20207;-80
2021/10/18 13:21:01;;;;;;;18.00;16.47;;;14.30;99.90;;;;;;4972696;28;20752;-79
2021/10/18 13:27:49;;;;;;;19.50;17.80;;;14.40;99.90;;;;;;4932769;28;20727;-78
2021/10/18 13:30:26;;;;;;;18.53;16.97;;;14.40;99.90;;;;;;5008554;28;20288;-79
2021/10/18 13:33:18;;;;;;;;;;;;;;;;;;;;;
2021/10/18 13:36:28;;;;;;;17.63;16.17;;;14.50;99.90;;;;;;4992795;28;20189;-80
2021/10/18 13:42:41;;;;;;;17.90;16.40;;;14.60;99.90;;;;;;4987651;28;20243;-80
2021/10/18 13:45:09;;;;;;;16.77;15.47;;;14.50;99.90;;;;;;5002725;28;20247;-80
2021/10/18 13:47:38;;;;;;;17.53;16.23;;;14.50;99.90;;;;;;4986149;28;20312;-79
2021/10/18 13:50:06;;;;;;;16.10;14.90;;;14.50;99.90;;;;;;5004053;28;20203;-79
2021/10/18 13:52:35;;;;;;;15.30;14.10;;;14.50;99.90;;;;;;4986596;28;20218;-77
2021/10/18 13:55:02;;;;;;;15.70;14.53;;;14.50;99.90;;;;;;4981644;28;20225;-77
2021/10/18 13:57:32;;;;;;;15.93;14.63;;;14.50;99.90;;;;;;4978914;28;20218;-77
2021/10/18 13:59:59;;;;;;;16.10;14.90;;;14.60;99.90;;;;;;5009819;28;20196;-77
2021/10/18 14:02:26;;;;;;;15.07;13.97;;;14.70;99.90;;;;;;5004650;28;20205;-77
2021/10/18 14:04:53;;;;;;;14.63;13.57;;;14.70;99.90;;;;;;5003902;28;20222;-77
2021/10/18 14:07:20;;;;;;;14.47;13.40;;;14.80;99.90;;;;;;5004688;28;20196;-77
2021/10/18 14:09:48;;;;;;;14.97;13.87;;;14.80;99.90;;;;;;5003914;28;20209;-77
2021/10/18 14:12:15;;;;;;;14.75;13.75;;;14.90;99.90;;;;;;4994415;28;20879;-77
2021/10/18 14:14:42;;;;;;;18.23;16.53;;;15.00;99.90;;;;;;4992130;28;20220;-77
2021/10/18 14:17:09;;;;;;;12.07;10.73;;;15.00;99.90;;;;;;5012390;28;20243;-77